In Salah, In Salah Airport (DAUI)

NameIn Salah Airport
CityIn Salah
CountryAlgeria
ICAODAUI
IATAINZ
Altitude273 m
CoordinatesGoogle Map
Live Air TrafficLiveATC.net
METARDAUI 210700Z 35010KT 6000 NSC 12/M06 Q1017
2019-02-21 07:00:00 Wind: North-Northwest (350°) 5.14 m/s - Visibility: 6000 m - Temperature: 12 °C - Dew point: -6 °C - Humidity: 28.1% - Pressure: 1017 hPa
Statistics

The table below shows the detailed information of all flights to/from In Salah, In Salah Airport (DAUI).

Ident Aircraft Coming fromFrom Going toTo Owner nameOwnerSpotted durationDurationDate
7T-VJT - B736 - Air Algerie DAH6373 BOEING 737-600 B736 In Salah, Algeria (DAUI) DAUI
1052 km
Hassi-messaoud, Algeria (DAUH) DAUH
616 km
Air Algerie Air Algerie 00:04:42 00:04:42 Mon, 28 Jan 2019 15:48:06 +0000 28/1/2019 3:48 pm
Mon, 28 Jan 2019 15:52:48 +0000 28/1/2019 3:52 pm
7T-VUV - AT76 - Air Algerie DAH6465 ATR ATR-72-600 AT76 In Salah, Algeria (DAUI) DAUI
1052 km
Algier, Algeria (DAAG) DAAG Air Algerie Air Algerie - - Fri, 25 Jan 2019 14:24:44 +0000 25/1/2019 2:24 pm
7T-VJQ - B736 - Air Algerie DAH6373 BOEING 737-600 B736 In Salah, Algeria (DAUI) DAUI
1052 km
Hassi-messaoud, Algeria (DAUH) DAUH
616 km
Air Algerie Air Algerie 00:06:14 00:06:14 Mon, 14 Jan 2019 15:52:51 +0000 14/1/2019 3:52 pm
Mon, 14 Jan 2019 15:59:05 +0000 14/1/2019 3:59 pm